Airfield :
LOGIN :

Register | Disclaimer

   EN    FR    IT 

 










Legend :    VFR   Marginal VFR   IFR   Intensive IFR   Very Intensive IFR
Visi :
Ceiling :
>= 8 km
>= 3000ft
5 to 8 km
1000 to 3000 ft
1500m to 5 km
500 to 1000 ft
800 to 1500m
200 to 500 ft
< 800m
< 200 ft
Symbols :   Thunderstorms  Fog  Heavy snow  Heavy precipitations  Wind > 20 kt
SIGMETs :     Misc.  Thunderstorms  Icing  Turbulence  Mountain Waves  Volcanic Ashes







- Airport Elevation : 479 ft
- IATA code : DOL
- Download approach charts


LFRG - Deauville

CURRENT METAR :
  • 191000Z AUTO 20005KT 160V220 9999 SCT005 07/07 Q1022 TEMPO 0300 FG VV///

EXPIRED METARs :
  • 190930Z AUTO 20006KT 6000 BKN002 06/06 Q1022 TEMPO 0300 FG VV///
  • 190900Z AUTO 19007KT 0600 0550 R30/0800N FG VV/// 05/05 Q1022 TEMPO 0300 FG
  • 190830Z AUTO 19007KT 0300 0250 R30/0800U FG VV/// 05/05 Q1022 NOSIG
  • 190800Z AUTO 19004KT 0250 R30/0300N FG VV/// 04/04 Q1022 BECMG 9999 BR BKN025
  • 190730Z AUTO 20005KT 0300 0250 R30/0375N FG VV/// 04/04 Q1021 BECMG 9999 BR BKN025

TAF AMD TAF LFRG
Valid from the 19 at 09:00 until the 19 at 18:00 UTC


190952Z 1909/1918 19005KT 5000 BR BKN003
BECMG 1909/1911 9999 NSW SCT030
ATIS : +33 2 31 65 65 36
No reported NOTAMs for that airfield.
1 SIGMET reported for the Paris FIR (LFFF) :
 
Severe turbulence
LFFF SIGMET 2 VALID 190800/191200 LFPW
LFFF PARIS FIR/UIR SEV TURB FCST WI N4715 E00130 - N4715 W00015 - N4800 W00015 - N4900 E00100 - N4830 E00230 - N4715 E00130 FL200/300 MOV E 10KT WKN=



MET'MAP, your aeronautical weather chart ! - Copyright ORBIFLY December 2007 - Disclaimer

ORBIFLY MET'MAP TEAM :

Programming & Development : Alexandra Zaïnal
Concept & Development : Baudouin d'Aumeries
Co-Development & Prog : Marc-Olivier Méhu
Technical & hardware support : Manuel Goepfert

Contact : metmap@orbifly.com




SOURCES & CREDITS :

   NOAA